Home > Products > Valid Products > MTR

000
SAUS45 KGGW 161849
MTRJDN
METAR KJDN 161848Z AUTO 05006KT 02/M06 A3007 RMK AO1 SLP206
T00171056





000
SAUS45 KGGW 161749
MTRJDN
METAR KJDN 161748Z AUTO 08005KT 01/M06 A3006 RMK AO1 SLP205
T00111056 10011 21033 53013





000
SAUS45 KGGW 161649
MTRJDN
METAR KJDN 161648Z AUTO 06008KT 00/M06 A3006 RMK AO1 SLP205
T00001061





000
SAUS45 KGGW 161549
MTRJDN
METAR KJDN 161548Z AUTO 06007KT M01/M06 A3003 RMK AO1 SLP193
T10061061





000
SAUS45 KGGW 161449
MTRJDN
METAR KJDN 161448Z AUTO 03006KT M02/M06 A3002 RMK AO1 SLP189
T10221061 52028





000
SAUS45 KGGW 161349
MTRJDN
METAR KJDN 161348Z AUTO 04008KT M03/M06 A2999 RMK AO1 SLP179
T10281061





000
SAUS45 KGGW 161249
MTRJDN
METAR KJDN 161248Z AUTO 02011KT M03/M07 A2996 RMK AO1 SLP165
T10281067





000
SAUS45 KGGW 161149
MTRJDN
METAR KJDN 161148Z AUTO 36008KT M03/M07 A2993 RMK AO1 SLP154
T10281067 10061 21028 53036





000
SAUS45 KGGW 161049
MTRJDN
METAR KJDN 161048Z AUTO 34010KT M02/M07 A2989 RMK AO1 SLP137
T10171067





000
SAUS45 KGGW 160949
MTRJDN
METAR KJDN 160948Z AUTO 34006KT M02/M07 A2985 RMK AO1 SLP124
T10171067





000
SAUS45 KGGW 160849
MTRJDN
METAR KJDN 160848Z AUTO 31005KT 00/M06 A2982 RMK AO1 SLP109
T00001061 53038





000
SAUS45 KGGW 160749
MTRJDN
METAR KJDN 160748Z AUTO 35012KT 03/M06 A2977 RMK AO1 SLP086
T00331056





000
SAUS45 KGGW 160649
MTRJDN
METAR KJDN 160648Z AUTO 34016KT 05/M05 A2973 RMK AO1 WSHFT 0608
SLP073 T00501050 401830000





000
SAUS45 KGGW 160626
MTRJDN
SPECI KJDN 160625Z AUTO 34015KT 06/M05 A2972 RMK AO1 WSHFT 0608
T00561050





000
SAUS45 KGGW 160549
MTRJDN
METAR KJDN 160548Z AUTO 25007KT 03/M04 A2970 RMK AO1 SLP064
T00331044 10139 20022 51025





000
SAUS45 KGGW 160449
MTRJDN
METAR KJDN 160448Z AUTO 28006KT 03/M05 A2969 RMK AO1 SLP061
T00281050





000
SAUS45 KGGW 160349
MTRJDN
METAR KJDN 160348Z AUTO 35007KT 04/M06 A2966 RMK AO1 SLP053
T00441056





000
SAUS45 KGGW 160249
MTRJDN
METAR KJDN 160248Z AUTO 36016G24KT 09/M06 A2962 RMK AO1 SLP037
T00941061 53023





000
SAUS45 KGGW 160149
MTRJDN
METAR KJDN 160148Z AUTO 29009KT 11/M05 A2958 RMK AO1 SLP026
T01061050





000
SAUS45 KGGW 160049
MTRJDN
METAR KJDN 160048Z AUTO 30016G21KT 13/M06 A2957 RMK AO1 PK WND
30027/0010 SLP022 T01281056





000
SAUS45 KGGW 152349
MTRJDN
METAR KJDN 152348Z AUTO 29019KT 14/M06 A2955 RMK AO1 PK WND
32031/2317 SLP012 T01391061 10183 20139 53004





000
SAUS45 KGGW 152249
MTRJDN
METAR KJDN 152248Z AUTO 32015G31KT 14/M06 A2954 RMK AO1 PK WND
32031/2242 SLP012 T01441061





000
SAUS45 KGGW 152149
MTRJDN
METAR KJDN 152148Z AUTO 29007KT 14/M06 A2954 RMK AO1 SLP011
T01441061





000
SAUS45 KGGW 152049
MTRJDN
METAR KJDN 152048Z AUTO 31017G28KT 270V340 17/M08 A2953 RMK AO1 PK
WND 31028/2048 SLP008 T01671078 56017





000
SAUS45 KGGW 151949
MTRJDN
METAR KJDN 151948Z AUTO 31012G20KT 17/M08 A2953 RMK AO1 PK WND
27029/1849 SLP006 T01721083





000
SAUS45 KGGW 151849
MTRJDN
METAR KJDN 151848Z AUTO 28025G32KT 17/M10 A2955 RMK AO1 PK WND
28032/1847 SLP013 T01721100





000
SAUS45 KGGW 151749
MTRJDN
METAR KJDN 151748Z AUTO 29016G29KT 17/M09 A2959 RMK AO1 PK WND
30029/1741 SLP025 T01671089 10167 20011 58011





000
SAUS45 KGGW 151649
MTRJDN
METAR KJDN 151648Z AUTO 29015KT 15/M07 A2960 RMK AO1 SLP030
T01501072





000
SAUS45 KGGW 151549
MTRJDN
METAR KJDN 151548Z AUTO 28014KT 13/M07 A2961 RMK AO1 SLP035
T01331072





000
SAUS45 KGGW 151449
MTRJDN
METAR KJDN 151448Z AUTO 27009KT 09/M06 A2962 RMK AO1 SLP042
T00941056 58016





000
SAUS45 KGGW 151349
MTRJDN
METAR KJDN 151348Z AUTO 27010KT 05/M05 A2964 RMK AO1 SLP053
T00501050





000
SAUS45 KGGW 151249
MTRJDN
METAR KJDN 151248Z AUTO 27007KT 03/M05 A2966 RMK AO1 SLP057
T00331050





000
SAUS45 KGGW 151149
MTRJDN
METAR KJDN 151148Z AUTO 29008KT 04/M06 A2967 RMK AO1 SLP059
T00391056 10039 20000 56024





000
SAUS45 KGGW 151049
MTRJDN
METAR KJDN 151048Z AUTO 00000KT 01/M06 A2969 RMK AO1 SLP070
T00061056





000
SAUS45 KGGW 150949
MTRJDN
METAR KJDN 150948Z AUTO 00000KT 02/M06 A2971 RMK AO1 SLP080
T00171061





000
SAUS45 KGGW 150849
MTRJDN
METAR KJDN 150848Z AUTO 00000KT 01/M07 A2975 RMK AO1 SLP091
T00111072 58032





000
SAUS45 KGGW 150749
MTRJDN
METAR KJDN 150748Z AUTO 11004KT 02/M08 A2978 RMK AO1 SLP106
T00221078





000
SAUS45 KGGW 150649
MTRJDN
METAR KJDN 150648Z AUTO 10006KT 02/M08 A2982 RMK AO1 SLP120
T00221078 400941111





000
SAUS45 KGGW 150549
MTRJDN
METAR KJDN 150548Z AUTO 08005KT 02/M07 A2985 RMK AO1 SLP131
T00221072 10094 20022 58025





000
SAUS45 KGGW 150449
MTRJDN
METAR KJDN 150448Z AUTO 16009KT 03/M07 A2987 RMK AO1 SLP142
T00281072





000
SAUS45 KGGW 150349
MTRJDN
METAR KJDN 150348Z AUTO 14008KT 03/M07 A2991 RMK AO1 SLP157
T00331072





000
SAUS45 KGGW 150249
MTRJDN
METAR KJDN 150248Z AUTO 09006KT 03/M07 A2993 RMK AO1 SLP164
T00331072 56022





000
SAUS45 KGGW 150149
MTRJDN
METAR KJDN 150148Z AUTO 12007KT 06/M08 A2994 RMK AO1 SLP170
T00561078





000
SAUS45 KGGW 150049
MTRJDN
METAR KJDN 150048Z AUTO 14011KT 08/M09 A2997 RMK AO1 SLP181
T00831089





000
SAUS45 KGGW 142349
MTRJDN
METAR KJDN 142348Z AUTO 12005KT 09/M09 A3000 RMK AO1 SLP189
T00891094 10094 20017 56035





000
SAUS45 KGGW 142249
MTRJDN
METAR KJDN 142248Z AUTO 17007KT 09/M09 A3003 RMK AO1 SLP200
T00891094





000
SAUS45 KGGW 142149
MTRJDN
METAR KJDN 142148Z AUTO 11005KT 07/M09 A3007 RMK AO1 SLP214
T00721094





000
SAUS45 KGGW 142049
MTRJDN
METAR KJDN 142048Z AUTO 07/M09 A3011 RMK AO1 SLP226 T00721094 58034





000
SAUS45 KGGW 141949
MTRJDN
METAR KJDN 141948Z AUTO 05004KT 05/M09 A3014 RMK AO1 SLP238
T00501094





000
SAUS45 KGGW 141849
MTRJDN
METAR KJDN 141848Z AUTO 03/M11 A3018 RMK AO1 SLP251 T00331106





000
SAUS45 KGGW 141749
MTRJDN
METAR KJDN 141748Z AUTO VRB05KT 02/M10 A3021 RMK AO1 SLP264
T00171100 10022 21111 58019





000
SAUS45 KGGW 141649
MTRJDN
METAR KJDN 141648Z AUTO 13007KT 00/M11 A3024 RMK AO1 SLP274
T00001106





000
SAUS45 KGGW 141549
MTRJDN
METAR KJDN 141548Z AUTO 11006KT M02/M11 A3025 RMK AO1 SLP277
T10221111





000
SAUS45 KGGW 141449
MTRJDN
METAR KJDN 141448Z AUTO 08005KT M04/M08 A3027 RMK AO1 SLP284
T10391078 50000





000
SAUS45 KGGW 141349
MTRJDN
METAR KJDN 141348Z AUTO 00000KT M07/M09 A3028 RMK AO1 SLP290
T10671089





000
SAUS45 KGGW 141249
MTRJDN
METAR KJDN 141248Z AUTO 30003KT M11/M13 A3028 RMK AO1 SLP291
T11061128





000
SAUS45 KGGW 141149
MTRJDN
METAR KJDN 141148Z AUTO 27004KT M10/M12 A3027 RMK AO1 SLP287
T11001122 11022 21111 55000





000
SAUS45 KGGW 141049
MTRJDN
METAR KJDN 141048Z AUTO 31006KT M10/M12 A3027 RMK AO1 SLP287
T11001117





000
SAUS45 KGGW 140949
MTRJDN
METAR KJDN 140948Z AUTO 31005KT M09/M11 A3026 RMK AO1 SLP285
T10891111





000
SAUS45 KGGW 140849
MTRJDN
METAR KJDN 140848Z AUTO 26003KT M07/M09 A3027 RMK AO1 SLP287
T10721094 50001





000
SAUS45 KGGW 140749
MTRJDN
METAR KJDN 140748Z AUTO 00000KT M05/M08 A3028 RMK AO1 SLP286
T10501083





000
SAUS45 KGGW 140649
MTRJDN
METAR KJDN 140648Z AUTO 36004KT M04/M09 A3028 RMK AO1 SLP287
T10441089 400611100





000
SAUS45 KGGW 140549
MTRJDN
METAR KJDN 140548Z AUTO 36009KT M03/M09 A3027 RMK AO1 SLP283
T10281089 10056 21039 51011





000
SAUS45 KGGW 140449
MTRJDN
METAR KJDN 140448Z AUTO 34008KT M02/M09 A3026 RMK AO1 SLP278
T10221094





000
SAUS45 KGGW 140349
MTRJDN
METAR KJDN 140348Z AUTO 35006KT 01/M10 A3025 RMK AO1 SLP273
T00061100





000
SAUS45 KGGW 140250
MTRJDN
METAR KJDN 140248Z AUTO 33006KT 02/M11 A3024 RMK AO1 SLP270
T00221106 55001





000
SAUS45 KGGW 140150
MTRJDN
METAR KJDN 140148Z AUTO 30006KT 02/M11 A3022 RMK AO1 SLP269
T00171111





000
SAUS45 KGGW 140049
MTRJDN
METAR KJDN 140048Z AUTO 31014KT 04/M12 A3023 RMK AO1 SLP273
T00441122





000
SAUS45 KGGW 132349
MTRJDN
METAR KJDN 132348Z AUTO 30017G23KT 06/M12 A3024 RMK AO1 SLP274
T00611122 10061 20017 57009





000
SAUS45 KGGW 132249
MTRJDN
METAR KJDN 132248Z AUTO 33017KT 05/M13 A3025 RMK AO1 PK WND
30027/2238 SLP280 T00501128





000
SAUS45 KGGW 132149
MTRJDN
METAR KJDN 132148Z AUTO 32016KT 04/M12 A3026 RMK AO1 SLP281
T00441122





000
SAUS45 KGGW 132049
MTRJDN
METAR KJDN 132048Z AUTO 32011G21KT 04/M12 A3027 RMK AO1 SLP280
T00391117 58008





000
SAUS45 KGGW 131949
MTRJDN
METAR KJDN 131948Z AUTO 33014KT 03/M12 A3028 RMK AO1 SLP283
T00331122





    US Dept of Commerce
    National Oceanic and Atmospheric Administration
    National Weather Service
    1325 East West Highway
    Silver Spring, MD 20910
    Page Author: NWS Internet Services Team
Disclaimer
Information Quality
Credits
Glossary
Privacy Policy
Freedom of Information Act (FOIA)
About Us
Career Opportunities